Wah Cantt Weather



Wah Cantt's Current Weather

Temprature 9.7o mist

mist

Rain: 0 %

Min Temprature9.44o
Max Temprature10o
Humidity100
Wind Speed3.1 m/h
Sun Rise07:05:38
Sun Set17:01:28
Current Time: 14-Dec-2019 08:14:24
Lat/Lon: 33.79, 72.73




Wah Cantt's Geo Location



Wah Cantt's Weather Forecast

Time Overall Temp Min Temp Max Temp Humidity Wind Speed Rain
14-Dec-2019 (Sat)
11:00:00 light rain 14.170 14.170 14.310 66 2.69 m/h 194 %
14:00:00 light rain 14.560 14.560 14.670 62 2.59 m/h 238 %
17:00:00 light rain 13.050 13.050 13.120 64 1.88 m/h 63 %
20:00:00 clear sky 11.710 11.710 11.750 70 2.26 m/h 0 %
23:00:00 clear sky 10.500 10.500 10.500 73 2.4 m/h 0 %
15-Dec-2019 (Sun)
02:00:00 few clouds 9.450 9.450 9.450 74 0.94 m/h 0 %
05:00:00 few clouds 8.610 8.610 8.610 80 0.63 m/h 0 %
08:00:00 clear sky 8.940 8.940 8.940 83 1 m/h 0 %
11:00:00 clear sky 13.720 13.720 13.720 60 2.36 m/h 0 %
14:00:00 clear sky 16.540 16.540 16.540 46 2.56 m/h 0 %
17:00:00 clear sky 13.880 13.880 13.880 53 1.79 m/h 0 %
20:00:00 clear sky 12.060 12.060 12.060 57 0.91 m/h 0 %
23:00:00 clear sky 10.790 10.790 10.790 64 1.21 m/h 0 %
16-Dec-2019 (Mon)
02:00:00 clear sky 9.620 9.620 9.620 60 0.96 m/h 0 %
05:00:00 clear sky 8.520 8.520 8.520 57 0.73 m/h 0 %
08:00:00 clear sky 8.650 8.650 8.650 51 0.5 m/h 0 %
11:00:00 clear sky 13.500 13.500 13.500 34 1.83 m/h 0 %
14:00:00 clear sky 16.630 16.630 16.630 26 2.8 m/h 0 %
17:00:00 clear sky 13.590 13.590 13.590 33 1.47 m/h 0 %
20:00:00 clear sky 11.640 11.640 11.640 36 1.7 m/h 0 %
23:00:00 clear sky 9.960 9.960 9.960 38 1.55 m/h 0 %
17-Dec-2019 (Tue)
02:00:00 clear sky 8.500 8.500 8.500 35 1.6 m/h 0 %
05:00:00 clear sky 7.100 7.100 7.100 32 0.98 m/h 0 %
08:00:00 few clouds 6.960 6.960 6.960 35 0.94 m/h 0 %
11:00:00 clear sky 12.670 12.670 12.670 22 1.59 m/h 0 %
14:00:00 clear sky 16.210 16.210 16.210 21 3.31 m/h 0 %
17:00:00 few clouds 12.740 12.740 12.740 27 1.75 m/h 0 %
20:00:00 overcast clouds 10.870 10.870 10.870 29 1.79 m/h 0 %
23:00:00 overcast clouds 9.260 9.260 9.260 27 1.5 m/h 0 %
18-Dec-2019 (Wed)
02:00:00 overcast clouds 8.060 8.060 8.060 26 1.25 m/h 0 %
05:00:00 overcast clouds 7.950 7.950 7.950 25 0.73 m/h 0 %
08:00:00 overcast clouds 8.150 8.150 8.150 27 0.04 m/h 0 %
11:00:00 overcast clouds 12.370 12.370 12.370 19 1.04 m/h 0 %
14:00:00 overcast clouds 15.250 15.250 15.250 16 0.75 m/h 0 %
17:00:00 overcast clouds 13.210 13.210 13.210 24 0.79 m/h 0 %
20:00:00 scattered clouds 10.860 10.860 10.860 26 1.43 m/h 0 %
23:00:00 broken clouds 9.720 9.720 9.720 27 0.31 m/h 0 %
19-Dec-2019 (Thu)
02:00:00 broken clouds 8.560 8.560 8.560 28 1.13 m/h 0 %
05:00:00 broken clouds 7.660 7.660 7.660 28 0.88 m/h 0 %
08:00:00 clear sky 7.450 7.450 7.450 30 0.45 m/h 0 %

Famous Cities (61)